Kushiro Airport
RJCK : now visible

Airfield :











YOU CAN JOIN US ON...

 
LOGIN :

Register | Disclaimer

   EN    FR    IT 

 









Legend :    VFR   Marginal VFR   IFR   Intensive IFR   Very Intensive IFR
Visi :
Ceiling :
>= 8 km
>= 3000ft
5 to 8 km
1000 to 3000 ft
1500m to 5 km
500 to 1000 ft
800 to 1500m
200 to 500 ft
< 800m
< 200 ft
Symbols :   Thunderstorms  Fog  Heavy snow  Heavy precipitations  Wind > 20 kt






- Airport Elevation : 327 ft
- IATA code : KUH


RJCK - Kushiro

CURRENT METAR :
  • 140100Z 34006KT 8000 -SHRA FEW003 BKN006 BKN010 M01/M01 Q1013

EXPIRED METARs :
  • 140040Z 34008KT 8000 -SHRA FEW003 SCT005 BKN006 M01/M01 Q1014 RMK 1ST003 4ST005 6ST006 A2995
  • 140000Z 34007KT 8000 -SHRA FEW003 SCT004 BKN005 M01/M02 Q1014
  • 132345Z 01006KT 6000 -SHRA FEW003 BKN005 BKN009 M02/M02 Q1014 RMK 1ST003 5ST005 6ST009 A2996
  • 132307Z 35006KT 5000 -SHSN FEW003 SCT009 BKN010 M02/M02 Q1015 RMK 1ST003 3ST009 6ST010 A2999
  • 132300Z 34007KT 4000 -SHSN FEW003 SCT009 BKN010 M02/M02 Q1015

TAF TAF RJCK
Valid from the 14 at 00:00 until the 15 at 06:00 UTC


132312Z 1400/1506 03006KT 9999 FEW003 BKN015
TEMPO 1400/1402 0500 SHSN VV002
TEMPO 1402/1406 1500 BR FEW001 BKN003
BECMG 1408/1410 35016KT
TEMPO 1409/1415 1500 -SHSN FEW003 BKN005



MET'MAP, your aeronautical weather chart ! - Copyright ORBIFLY December 2007 - Disclaimer

ORBIFLY MET'MAP TEAM :

Programming & Development : Alexandra Zaïnal
Concept & original design : Baudouin d'Aumeries
Assistance for programming : Marc-Olivier Méhu
Technical & hardware support : Manuel Goepfert

Contact : metmap@orbifly.com




SOURCES & CREDITS :

   NOAA       Earth
Advisory